sensor_id;sensor_type;location;lat;lon;timestamp;pressure;altitude;pressure_sealevel;temperature;humidity
54592;BME280;40488;48.558;18.150;2022-10-19T00:01:32;100284.84;;;12.97;84.69
54592;BME280;40488;48.558;18.150;2022-10-19T00:04:03;100271.19;;;12.97;84.69
54592;BME280;40488;48.558;18.150;2022-10-19T00:06:36;100280.56;;;12.96;84.88
54592;BME280;40488;48.558;18.150;2022-10-19T00:09:05;100277.19;;;13.00;84.84
54592;BME280;40488;48.558;18.150;2022-10-19T00:11:38;100274.63;;;13.00;84.92
54592;BME280;40488;48.558;18.150;2022-10-19T00:14:09;100266.94;;;13.00;85.44
54592;BME280;40488;48.558;18.150;2022-10-19T00:16:40;100274.59;;;13.02;84.87
54592;BME280;40488;48.558;18.150;2022-10-19T00:19:12;100268.63;;;13.04;84.93
54592;BME280;40488;48.558;18.150;2022-10-19T00:21:42;100270.31;;;13.05;85.26
54592;BME280;40488;48.558;18.150;2022-10-19T00:24:11;100258.38;;;13.04;85.40
54592;BME280;40488;48.558;18.150;2022-10-19T00:26:41;100256.66;;;12.97;86.04
54592;BME280;40488;48.558;18.150;2022-10-19T00:29:11;100267.78;;;12.98;85.53
54592;BME280;40488;48.558;18.150;2022-10-19T00:31:40;100263.50;;;13.00;85.90
54592;BME280;40488;48.558;18.150;2022-10-19T00:34:09;100259.22;;;12.96;86.28
54592;BME280;40488;48.558;18.150;2022-10-19T00:36:39;100266.06;;;12.95;86.12
54592;BME280;40488;48.558;18.150;2022-10-19T00:39:11;100264.34;;;13.05;86.49
54592;BME280;40488;48.558;18.150;2022-10-19T00:41:43;100254.97;;;12.93;86.19
54592;BME280;40488;48.558;18.150;2022-10-19T00:47:03;100268.63;;;13.01;86.44
54592;BME280;40488;48.558;18.150;2022-10-19T00:49:36;100266.94;;;13.00;86.44
54592;BME280;40488;48.558;18.150;2022-10-19T00:52:07;100265.22;;;12.99;86.38
54592;BME280;40488;48.558;18.150;2022-10-19T00:54:39;100260.91;;;12.98;86.34
54592;BME280;40488;48.558;18.150;2022-10-19T00:57:10;100268.59;;;12.98;86.32
54592;BME280;40488;48.558;18.150;2022-10-19T00:59:41;100262.63;;;12.96;86.22
54592;BME280;40488;48.558;18.150;2022-10-19T01:02:11;100267.78;;;12.92;86.44
54592;BME280;40488;48.558;18.150;2022-10-19T01:04:45;100272.03;;;12.94;86.08
54592;BME280;40488;48.558;18.150;2022-10-19T01:07:15;100249.00;;;12.82;86.16
54592;BME280;40488;48.558;18.150;2022-10-19T01:09:44;100260.09;;;12.90;86.19
54592;BME280;40488;48.558;18.150;2022-10-19T01:15:17;100254.97;;;12.84;85.76
54592;BME280;40488;48.558;18.150;2022-10-19T01:17:55;100258.38;;;12.77;85.83
54592;BME280;40488;48.558;18.150;2022-10-19T01:20:35;100253.28;;;12.74;86.09
54592;BME280;40488;48.558;18.150;2022-10-19T01:23:29;100256.69;;;12.73;85.82
54592;BME280;40488;48.558;18.150;2022-10-19T01:26:10;100249.88;;;12.69;85.68
54592;BME280;40488;48.558;18.150;2022-10-19T01:28:51;100246.44;;;12.64;85.91
54592;BME280;40488;48.558;18.150;2022-10-19T01:31:32;100246.44;;;12.61;85.79
54592;BME280;40488;48.558;18.150;2022-10-19T01:34:08;100259.25;;;12.59;85.81
54592;BME280;40488;48.558;18.150;2022-10-19T01:36:43;100251.56;;;12.52;85.69
54592;BME280;40488;48.558;18.150;2022-10-19T01:39:20;100256.69;;;12.43;85.76
54592;BME280;40488;48.558;18.150;2022-10-19T01:41:58;100254.13;;;12.35;85.70
54592;BME280;40488;48.558;18.150;2022-10-19T01:44:36;100254.94;;;12.24;85.88
54592;BME280;40488;48.558;18.150;2022-10-19T01:47:14;100254.94;;;12.24;85.81
54592;BME280;40488;48.558;18.150;2022-10-19T01:49:48;100246.38;;;12.22;85.89
54592;BME280;40488;48.558;18.150;2022-10-19T01:52:19;100243.00;;;12.21;86.15
54592;BME280;40488;48.558;18.150;2022-10-19T01:54:57;100235.31;;;12.23;86.13
54592;BME280;40488;48.558;18.150;2022-10-19T01:57:29;100247.25;;;12.27;86.33
54592;BME280;40488;48.558;18.150;2022-10-19T02:00:00;100244.72;;;12.33;86.78
54592;BME280;40488;48.558;18.150;2022-10-19T02:02:44;100242.16;;;12.37;87.06
54592;BME280;40488;48.558;18.150;2022-10-19T02:05:17;100235.31;;;12.36;87.29
54592;BME280;40488;48.558;18.150;2022-10-19T02:07:52;100231.91;;;12.34;87.46
54592;BME280;40488;48.558;18.150;2022-10-19T02:10:23;100236.22;;;12.43;87.41
54592;BME280;40488;48.558;18.150;2022-10-19T02:12:53;100237.88;;;12.45;87.21
54592;BME280;40488;48.558;18.150;2022-10-19T02:15:24;100234.47;;;12.39;87.08
54592;BME280;40488;48.558;18.150;2022-10-19T02:17:57;100243.84;;;12.28;86.84
54592;BME280;40488;48.558;18.150;2022-10-19T02:20:28;100253.25;;;12.26;86.72
54592;BME280;40488;48.558;18.150;2022-10-19T02:22:57;100258.34;;;12.29;86.61
54592;BME280;40488;48.558;18.150;2022-10-19T02:25:26;100258.34;;;12.29;86.90
54592;BME280;40488;48.558;18.150;2022-10-19T02:27:55;100254.94;;;12.27;86.66
54592;BME280;40488;48.558;18.150;2022-10-19T02:30:23;100265.19;;;12.27;86.50
54592;BME280;40488;48.558;18.150;2022-10-19T02:32:52;100261.75;;;12.22;86.79
54592;BME280;40488;48.558;18.150;2022-10-19T02:35:22;100264.31;;;12.22;86.59
54592;BME280;40488;48.558;18.150;2022-10-19T02:37:51;100261.78;;;12.19;86.56
54592;BME280;40488;48.558;18.150;2022-10-19T02:40:20;100264.28;;;12.14;86.67
54592;BME280;40488;48.558;18.150;2022-10-19T02:42:53;100259.19;;;12.06;86.65
54592;BME280;40488;48.558;18.150;2022-10-19T02:45:27;100264.25;;;11.96;86.74
54592;BME280;40488;48.558;18.150;2022-10-19T02:47:59;100251.44;;;11.88;86.82
54592;BME280;40488;48.558;18.150;2022-10-19T02:50:31;100254.00;;;11.93;87.06
54592;BME280;40488;48.558;18.150;2022-10-19T02:53:00;100251.47;;;11.99;87.23
54592;BME280;40488;48.558;18.150;2022-10-19T02:55:29;100253.19;;;12.04;87.51
54592;BME280;40488;48.558;18.150;2022-10-19T02:57:59;100260.03;;;12.12;87.45
54592;BME280;40488;48.558;18.150;2022-10-19T03:00:28;100212.25;;;11.98;87.58
54592;BME280;40488;48.558;18.150;2022-10-19T03:02:57;100256.66;;;12.34;87.86
54592;BME280;40488;48.558;18.150;2022-10-19T03:05:25;100255.81;;;12.44;87.94
54592;BME280;40488;48.558;18.150;2022-10-19T03:07:55;100249.84;;;12.48;87.90
54592;BME280;40488;48.558;18.150;2022-10-19T03:10:24;100254.09;;;12.55;87.94
54592;BME280;40488;48.558;18.150;2022-10-19T03:12:53;100240.47;;;12.66;88.41
54592;BME280;40488;48.558;18.150;2022-10-19T03:15:25;100253.25;;;13.03;88.43
54592;BME280;40488;48.558;18.150;2022-10-19T03:17:56;100262.66;;;13.02;88.01
54592;BME280;40488;48.558;18.150;2022-10-19T03:20:24;100261.81;;;13.00;88.26
54592;BME280;40488;48.558;18.150;2022-10-19T03:22:53;100261.81;;;13.09;88.36
54592;BME280;40488;48.558;18.150;2022-10-19T03:25:23;100254.94;;;13.17;88.06
54592;BME280;40488;48.558;18.150;2022-10-19T03:27:52;100243.00;;;13.13;87.94
54592;BME280;40488;48.558;18.150;2022-10-19T03:30:21;100265.19;;;13.23;87.86
54592;BME280;40488;48.558;18.150;2022-10-19T03:32:49;100255.78;;;13.27;87.71
54592;BME280;40488;48.558;18.150;2022-10-19T03:35:18;100267.75;;;13.31;87.30
54592;BME280;40488;48.558;18.150;2022-10-19T03:37:47;100250.66;;;13.28;86.75
54592;BME280;40488;48.558;18.150;2022-10-19T03:40:15;100263.47;;;13.31;86.50
54592;BME280;40488;48.558;18.150;2022-10-19T03:42:45;100258.34;;;13.31;86.67
54592;BME280;40488;48.558;18.150;2022-10-19T03:45:14;100254.91;;;13.29;86.37
54592;BME280;40488;48.558;18.150;2022-10-19T03:47:48;100256.66;;;13.24;86.19
54592;BME280;40488;48.558;18.150;2022-10-19T03:50:17;100258.41;;;13.12;86.00
54592;BME280;40488;48.558;18.150;2022-10-19T03:52:47;100257.53;;;12.99;85.95
54592;BME280;40488;48.558;18.150;2022-10-19T03:55:16;100259.25;;;12.85;85.93
54592;BME280;40488;48.558;18.150;2022-10-19T03:57:46;100266.06;;;12.86;86.25
54592;BME280;40488;48.558;18.150;2022-10-19T04:00:15;100265.22;;;12.81;86.04
54592;BME280;40488;48.558;18.150;2022-10-19T04:02:43;100260.09;;;12.78;86.18
54592;BME280;40488;48.558;18.150;2022-10-19T04:05:12;100260.09;;;12.69;86.29
54592;BME280;40488;48.558;18.150;2022-10-19T04:07:41;100263.53;;;12.71;86.46
54592;BME280;40488;48.558;18.150;2022-10-19T04:10:09;100267.78;;;12.66;86.37
54592;BME280;40488;48.558;18.150;2022-10-19T04:12:38;100269.50;;;12.64;86.35
54592;BME280;40488;48.558;18.150;2022-10-19T04:15:09;100275.47;;;12.78;86.50
54592;BME280;40488;48.558;18.150;2022-10-19T04:17:37;100266.09;;;12.83;86.43
54592;BME280;40488;48.558;18.150;2022-10-19T04:20:07;100268.63;;;12.80;86.45
54592;BME280;40488;48.558;18.150;2022-10-19T04:22:35;100278.03;;;12.75;86.24
54592;BME280;40488;48.558;18.150;2022-10-19T04:25:05;100289.13;;;12.63;86.14
54592;BME280;40488;48.558;18.150;2022-10-19T04:27:34;100289.97;;;12.49;86.17
54592;BME280;40488;48.558;18.150;2022-10-19T04:30:04;100287.41;;;12.49;86.40
54592;BME280;40488;48.558;18.150;2022-10-19T04:32:34;100292.53;;;12.49;86.29
54592;BME280;40488;48.558;18.150;2022-10-19T04:35:03;100283.97;;;12.44;86.28
54592;BME280;40488;48.558;18.150;2022-10-19T04:37:31;100282.28;;;12.35;86.05
54592;BME280;40488;48.558;18.150;2022-10-19T04:40:00;100277.97;;;12.27;86.09
54592;BME280;40488;48.558;18.150;2022-10-19T04:42:30;100275.41;;;12.27;85.96
54592;BME280;40488;48.558;18.150;2022-10-19T04:44:59;100280.53;;;12.30;85.88
54592;BME280;40488;48.558;18.150;2022-10-19T04:47:27;100277.13;;;12.34;85.97
54592;BME280;40488;48.558;18.150;2022-10-19T04:49:58;100281.44;;;12.38;86.03
54592;BME280;40488;48.558;18.150;2022-10-19T04:52:26;100283.97;;;12.39;85.79
54592;BME280;40488;48.558;18.150;2022-10-19T04:54:55;100278.03;;;12.40;86.05
54592;BME280;40488;48.558;18.150;2022-10-19T04:57:23;100278.88;;;12.47;86.21
54592;BME280;40488;48.558;18.150;2022-10-19T04:59:52;100277.16;;;12.52;86.25
54592;BME280;40488;48.558;18.150;2022-10-19T05:02:21;100282.28;;;12.53;86.22
54592;BME280;40488;48.558;18.150;2022-10-19T05:04:50;100283.13;;;12.51;86.18
54592;BME280;40488;48.558;18.150;2022-10-19T05:07:20;100281.44;;;12.51;86.25
54592;BME280;40488;48.558;18.150;2022-10-19T05:09:48;100263.50;;;12.44;86.14
54592;BME280;40488;48.558;18.150;2022-10-19T05:12:17;100272.03;;;12.49;86.45
54592;BME280;40488;48.558;18.150;2022-10-19T05:14:46;100279.72;;;12.55;86.28
54592;BME280;40488;48.558;18.150;2022-10-19T05:17:14;100275.47;;;12.54;86.24
54592;BME280;40488;48.558;18.150;2022-10-19T05:19:43;100284.00;;;12.56;86.35
54592;BME280;40488;48.558;18.150;2022-10-19T05:22:12;100289.09;;;12.57;86.23
54592;BME280;40488;48.558;18.150;2022-10-19T05:24:42;100292.53;;;12.58;86.24
54592;BME280;40488;48.558;18.150;2022-10-19T05:27:10;100273.75;;;12.50;86.08
54592;BME280;40488;48.558;18.150;2022-10-19T05:29:39;100285.69;;;12.60;86.15
54592;BME280;40488;48.558;18.150;2022-10-19T05:32:07;100274.63;;;12.56;86.03
54592;BME280;40488;48.558;18.150;2022-10-19T05:34:36;100286.56;;;12.60;86.16
54592;BME280;40488;48.558;18.150;2022-10-19T05:37:05;100266.09;;;12.54;85.97
54592;BME280;40488;48.558;18.150;2022-10-19T05:39:34;100294.25;;;12.62;85.97
54592;BME280;40488;48.558;18.150;2022-10-19T05:42:04;100286.56;;;12.60;85.91
54592;BME280;40488;48.558;18.150;2022-10-19T05:44:32;100285.69;;;12.63;85.85
54592;BME280;40488;48.558;18.150;2022-10-19T05:47:02;100275.47;;;12.66;85.78
54592;BME280;40488;48.558;18.150;2022-10-19T05:49:30;100289.13;;;12.68;85.87
54592;BME280;40488;48.558;18.150;2022-10-19T05:51:59;100287.41;;;12.67;85.96
54592;BME280;40488;48.558;18.150;2022-10-19T05:54:27;100290.81;;;12.67;85.53
54592;BME280;40488;48.558;18.150;2022-10-19T05:56:56;100297.66;;;12.67;85.70
54592;BME280;40488;48.558;18.150;2022-10-19T05:59:26;100302.78;;;12.70;85.65
54592;BME280;40488;48.558;18.150;2022-10-19T06:01:55;100311.34;;;12.78;85.52
54592;BME280;40488;48.558;18.150;2022-10-19T06:04:24;100310.47;;;12.85;85.26
54592;BME280;40488;48.558;18.150;2022-10-19T06:06:53;100298.50;;;12.84;85.29
54592;BME280;40488;48.558;18.150;2022-10-19T06:09:22;100314.75;;;13.01;85.06
54592;BME280;40488;48.558;18.150;2022-10-19T06:11:50;100317.34;;;13.07;85.48
54592;BME280;40488;48.558;18.150;2022-10-19T06:14:19;100323.31;;;13.12;85.04
54592;BME280;40488;48.558;18.150;2022-10-19T06:16:49;100325.00;;;13.25;85.38
54592;BME280;40488;48.558;18.150;2022-10-19T06:19:18;100325.00;;;13.40;84.91
54592;BME280;40488;48.558;18.150;2022-10-19T06:21:46;100328.38;;;13.55;84.99
54592;BME280;40488;48.558;18.150;2022-10-19T06:24:15;100327.50;;;13.62;84.59
54592;BME280;40488;48.558;18.150;2022-10-19T06:26:44;100328.31;;;13.73;84.12
54592;BME280;40488;48.558;18.150;2022-10-19T06:29:13;100320.59;;;13.77;83.68
54592;BME280;40488;48.558;18.150;2022-10-19T06:31:41;100321.47;;;13.73;83.31
54592;BME280;40488;48.558;18.150;2022-10-19T06:34:13;100316.28;;;13.90;83.02
54592;BME280;40488;48.558;18.150;2022-10-19T06:36:42;100322.25;;;13.95;82.97
54592;BME280;40488;48.558;18.150;2022-10-19T06:39:10;100326.50;;;14.02;82.94
54592;BME280;40488;48.558;18.150;2022-10-19T06:41:39;100333.25;;;14.18;82.90
54592;BME280;40488;48.558;18.150;2022-10-19T06:44:20;100329.75;;;14.40;83.06
54592;BME280;40488;48.558;18.150;2022-10-19T06:46:48;100333.94;;;14.55;83.00
54592;BME280;40488;48.558;18.150;2022-10-19T06:49:18;100331.31;;;14.65;82.47
54592;BME280;40488;48.558;18.150;2022-10-19T06:51:47;100290.34;;;14.49;82.58
54592;BME280;40488;48.558;18.150;2022-10-19T06:54:16;100344.94;;;14.76;82.09
54592;BME280;40488;48.558;18.150;2022-10-19T06:56:44;100342.34;;;14.83;82.26
54592;BME280;40488;48.558;18.150;2022-10-19T06:59:13;100344.94;;;14.80;81.54
54592;BME280;40488;48.558;18.150;2022-10-19T07:01:43;100336.25;;;14.93;81.29
54592;BME280;40488;48.558;18.150;2022-10-19T07:04:12;100347.28;;;15.07;80.58
54592;BME280;40488;48.558;18.150;2022-10-19T07:06:42;100344.66;;;15.13;80.75
54592;BME280;40488;48.558;18.150;2022-10-19T07:09:11;100351.44;;;15.23;80.34
54592;BME280;40488;48.558;18.150;2022-10-19T07:11:40;100359.91;;;15.31;79.91
54592;BME280;40488;48.558;18.150;2022-10-19T07:14:12;100357.31;;;15.37;79.42
54592;BME280;40488;48.558;18.150;2022-10-19T07:16:41;100358.13;;;15.45;79.19
54592;BME280;40488;48.558;18.150;2022-10-19T07:19:10;100363.16;;;15.57;78.21
54592;BME280;40488;48.558;18.150;2022-10-19T07:21:39;100361.22;;;15.74;77.46
54592;BME280;40488;48.558;18.150;2022-10-19T07:24:11;100357.66;;;15.87;76.94
54592;BME280;40488;48.558;18.150;2022-10-19T07:26:40;100348.97;;;15.97;75.72
54592;BME280;40488;48.558;18.150;2022-10-19T07:29:09;100352.25;;;16.08;75.13
54592;BME280;40488;48.558;18.150;2022-10-19T07:31:37;100360.75;;;16.17;74.69
54592;BME280;40488;48.558;18.150;2022-10-19T07:34:08;100365.78;;;16.26;73.96
54592;BME280;40488;48.558;18.150;2022-10-19T07:36:39;100352.03;;;16.27;73.28
54592;BME280;40488;48.558;18.150;2022-10-19T07:39:15;100350.22;;;16.32;72.44
54592;BME280;40488;48.558;18.150;2022-10-19T07:41:44;100359.47;;;16.46;71.99
54592;BME280;40488;48.558;18.150;2022-10-19T07:44:13;100362.00;;;16.55;71.63
54592;BME280;40488;48.558;18.150;2022-10-19T07:46:42;100363.59;;;16.61;71.04
54592;BME280;40488;48.558;18.150;2022-10-19T07:49:13;100361.78;;;16.69;70.74
54592;BME280;40488;48.558;18.150;2022-10-19T07:51:42;100362.47;;;16.80;71.16
54592;BME280;40488;48.558;18.150;2022-10-19T07:54:12;100359.78;;;16.89;70.65
54592;BME280;40488;48.558;18.150;2022-10-19T07:56:41;100373.41;;;16.94;70.25
54592;BME280;40488;48.558;18.150;2022-10-19T07:59:09;100365.63;;;16.99;69.94
54592;BME280;40488;48.558;18.150;2022-10-19T08:01:40;100371.63;;;16.99;69.60
54592;BME280;40488;48.558;18.150;2022-10-19T08:04:10;100368.97;;;17.05;69.30
54592;BME280;40488;48.558;18.150;2022-10-19T08:06:59;100362.91;;;17.06;68.54
54592;BME280;40488;48.558;18.150;2022-10-19T08:09:29;100362.81;;;17.12;67.84
54592;BME280;40488;48.558;18.150;2022-10-19T08:12:17;100373.19;;;17.09;67.24
54592;BME280;40488;48.558;18.150;2022-10-19T08:14:46;100373.91;;;17.17;67.37
54592;BME280;40488;48.558;18.150;2022-10-19T08:17:15;100366.03;;;17.26;67.05
54592;BME280;40488;48.558;18.150;2022-10-19T08:19:44;100367.63;;;17.33;66.78
54592;BME280;40488;48.558;18.150;2022-10-19T08:22:13;100364.06;;;17.40;67.02
54592;BME280;40488;48.558;18.150;2022-10-19T08:24:43;100362.25;;;17.46;66.69
54592;BME280;40488;48.558;18.150;2022-10-19T08:27:11;100360.66;;;17.38;65.83
54592;BME280;40488;48.558;18.150;2022-10-19T08:29:41;100359.91;;;17.32;65.60
54592;BME280;40488;48.558;18.150;2022-10-19T08:32:10;100358.13;;;17.35;65.61
54592;BME280;40488;48.558;18.150;2022-10-19T08:34:38;100358.84;;;17.43;65.80
54592;BME280;40488;48.558;18.150;2022-10-19T08:37:07;100353.56;;;17.50;65.77
54592;BME280;40488;48.558;18.150;2022-10-19T08:39:57;100353.53;;;17.53;65.55
54592;BME280;40488;48.558;18.150;2022-10-19T08:42:31;100355.19;;;17.57;65.14
54592;BME280;40488;48.558;18.150;2022-10-19T08:45:25;100363.88;;;17.53;63.97
54592;BME280;40488;48.558;18.150;2022-10-19T08:48:02;100358.69;;;17.53;63.98
54592;BME280;40488;48.558;18.150;2022-10-19T08:50:42;100343.00;;;17.65;64.11
54592;BME280;40488;48.558;18.150;2022-10-19T08:53:14;100345.63;;;17.63;63.89
54592;BME280;40488;48.558;18.150;2022-10-19T08:55:55;100352.50;;;17.63;63.37
54592;BME280;40488;48.558;18.150;2022-10-19T08:58:43;100348.84;;;17.74;63.05
54592;BME280;40488;48.558;18.150;2022-10-19T09:01:28;100352.28;;;17.73;62.21
54592;BME280;40488;48.558;18.150;2022-10-19T09:04:06;100351.28;;;17.82;61.54
54592;BME280;40488;48.558;18.150;2022-10-19T09:06:46;100352.09;;;17.84;61.02
54592;BME280;40488;48.558;18.150;2022-10-19T09:09:18;100346.09;;;17.82;60.86
54592;BME280;40488;48.558;18.150;2022-10-19T09:11:51;100352.28;;;17.75;60.85
54592;BME280;40488;48.558;18.150;2022-10-19T09:14:29;100352.28;;;17.75;61.81
54592;BME280;40488;48.558;18.150;2022-10-19T09:17:01;100351.72;;;17.58;61.97
54592;BME280;40488;48.558;18.150;2022-10-19T09:19:31;100354.63;;;17.38;61.96
54592;BME280;40488;48.558;18.150;2022-10-19T09:22:03;100351.91;;;17.46;61.43
54592;BME280;40488;48.558;18.150;2022-10-19T09:24:41;100356.72;;;17.67;61.64
54592;BME280;40488;48.558;18.150;2022-10-19T09:27:17;100356.38;;;17.85;61.17
54592;BME280;40488;48.558;18.150;2022-10-19T09:29:52;100343.13;;;18.00;59.98
54592;BME280;40488;48.558;18.150;2022-10-19T09:32:26;100345.69;;;18.03;59.46
54592;BME280;40488;48.558;18.150;2022-10-19T09:35:01;100344.72;;;18.08;58.82
54592;BME280;40488;48.558;18.150;2022-10-19T09:37:31;100345.38;;;18.18;58.43
54592;BME280;40488;48.558;18.150;2022-10-19T09:40:05;100338.47;;;18.17;57.18
54592;BME280;40488;48.558;18.150;2022-10-19T09:42:39;100334.22;;;18.16;56.87
54592;BME280;40488;48.558;18.150;2022-10-19T09:45:13;100341.00;;;18.20;56.54
54592;BME280;40488;48.558;18.150;2022-10-19T09:47:47;100343.53;;;18.23;56.36
54592;BME280;40488;48.558;18.150;2022-10-19T09:50:19;100340.72;;;18.34;56.55
54592;BME280;40488;48.558;18.150;2022-10-19T09:52:49;100346.44;;;18.49;56.53
54592;BME280;40488;48.558;18.150;2022-10-19T09:55:26;100343.06;;;18.44;55.54
54592;BME280;40488;48.558;18.150;2022-10-19T09:58:03;100344.91;;;18.39;54.89
54592;BME280;40488;48.558;18.150;2022-10-19T10:00:36;100339.59;;;18.45;55.18
54592;BME280;40488;48.558;18.150;2022-10-19T10:03:06;100342.03;;;18.54;55.16
54592;BME280;40488;48.558;18.150;2022-10-19T10:05:37;100337.72;;;18.53;54.68
54592;BME280;40488;48.558;18.150;2022-10-19T10:08:12;100346.81;;;18.71;54.82
54592;BME280;40488;48.558;18.150;2022-10-19T10:10:43;100344.91;;;18.78;54.62
54592;BME280;40488;48.558;18.150;2022-10-19T10:13:18;100350.91;;;18.80;54.34
54592;BME280;40488;48.558;18.150;2022-10-19T10:15:53;100343.44;;;18.67;54.06
54592;BME280;40488;48.558;18.150;2022-10-19T10:18:24;100329.63;;;18.67;53.06
54592;BME280;40488;48.558;18.150;2022-10-19T10:21:02;100345.25;;;18.64;52.25
54592;BME280;40488;48.558;18.150;2022-10-19T10:23:33;100337.44;;;18.65;51.97
54592;BME280;40488;48.558;18.150;2022-10-19T10:26:04;100331.25;;;18.72;51.57
54592;BME280;40488;48.558;18.150;2022-10-19T10:28:45;100328.38;;;18.85;51.47
54592;BME280;40488;48.558;18.150;2022-10-19T10:31:18;100326.47;;;18.93;50.65
54592;BME280;40488;48.558;18.150;2022-10-19T10:33:54;100322.91;;;18.97;50.29
54592;BME280;40488;48.558;18.150;2022-10-19T10:36:43;100320.06;;;19.07;49.99
54592;BME280;40488;48.558;18.150;2022-10-19T10:39:16;100317.97;;;19.20;50.15
54592;BME280;40488;48.558;18.150;2022-10-19T10:41:46;100323.88;;;19.25;49.64
54592;BME280;40488;48.558;18.150;2022-10-19T10:44:19;100322.81;;;19.33;48.87
54592;BME280;40488;48.558;18.150;2022-10-19T10:46:51;100316.50;;;19.45;48.31
54592;BME280;40488;48.558;18.150;2022-10-19T10:49:24;100319.91;;;19.47;48.11
54592;BME280;40488;48.558;18.150;2022-10-19T10:51:56;100318.09;;;19.49;48.26
54592;BME280;40488;48.558;18.150;2022-10-19T10:54:26;100319.50;;;19.62;48.23
54592;BME280;40488;48.558;18.150;2022-10-19T10:57:10;100302.50;;;19.52;47.58
54592;BME280;40488;48.558;18.150;2022-10-19T10:59:49;100302.50;;;19.52;47.69
54592;BME280;40488;48.558;18.150;2022-10-19T11:02:30;100298.66;;;19.33;48.06
54592;BME280;40488;48.558;18.150;2022-10-19T11:05:03;100297.41;;;19.49;48.69
54592;BME280;40488;48.558;18.150;2022-10-19T11:07:34;100286.88;;;19.55;48.23
54592;BME280;40488;48.558;18.150;2022-10-19T11:10:10;100291.94;;;19.58;48.08
54592;BME280;40488;48.558;18.150;2022-10-19T11:12:45;100300.22;;;19.72;47.99
54592;BME280;40488;48.558;18.150;2022-10-19T11:15:21;100289.75;;;19.75;47.72
54592;BME280;40488;48.558;18.150;2022-10-19T11:17:57;100281.81;;;19.81;47.59
54592;BME280;40488;48.558;18.150;2022-10-19T11:20:30;100276.91;;;19.72;47.56
54592;BME280;40488;48.558;18.150;2022-10-19T11:23:07;100273.94;;;19.84;47.97
54592;BME280;40488;48.558;18.150;2022-10-19T11:25:42;100277.66;;;20.05;48.09
54592;BME280;40488;48.558;18.150;2022-10-19T11:28:26;100269.53;;;20.16;47.87
54592;BME280;40488;48.558;18.150;2022-10-19T11:31:09;100265.94;;;20.23;47.19
54592;BME280;40488;48.558;18.150;2022-10-19T11:33:52;100266.28;;;20.09;46.73
54592;BME280;40488;48.558;18.150;2022-10-19T11:36:36;100269.03;;;20.04;45.98
54592;BME280;40488;48.558;18.150;2022-10-19T11:39:20;100268.88;;;19.81;45.33
54592;BME280;40488;48.558;18.150;2022-10-19T11:41:59;100269.03;;;19.75;45.76
54592;BME280;40488;48.558;18.150;2022-10-19T11:44:37;100262.25;;;19.71;45.28
54592;BME280;40488;48.558;18.150;2022-10-19T11:47:24;100263.19;;;19.38;45.54
54592;BME280;40488;48.558;18.150;2022-10-19T11:50:07;100265.72;;;19.06;45.98
54592;BME280;40488;48.558;18.150;2022-10-19T11:52:44;100260.13;;;18.90;46.06
54592;BME280;40488;48.558;18.150;2022-10-19T11:55:22;100255.38;;;19.06;45.90
54592;BME280;40488;48.558;18.150;2022-10-19T11:58:05;100261.84;;;19.22;45.93
54592;BME280;40488;48.558;18.150;2022-10-19T12:00:41;100261.34;;;19.09;45.40
54592;BME280;40488;48.558;18.150;2022-10-19T12:03:27;100258.56;;;19.17;45.31
54592;BME280;40488;48.558;18.150;2022-10-19T12:06:08;100242.78;;;19.26;44.95
54592;BME280;40488;48.558;18.150;2022-10-19T12:08:56;100234.69;;;19.38;44.86
54592;BME280;40488;48.558;18.150;2022-10-19T12:11:42;100239.81;;;19.70;45.72
54592;BME280;40488;48.558;18.150;2022-10-19T12:14:16;100236.34;;;19.71;44.72
54592;BME280;40488;48.558;18.150;2022-10-19T12:16:49;100242.31;;;19.73;44.93
54592;BME280;40488;48.558;18.150;2022-10-19T12:19:25;100242.44;;;19.69;44.30
54592;BME280;40488;48.558;18.150;2022-10-19T12:21:59;100234.91;;;19.61;44.14
54592;BME280;40488;48.558;18.150;2022-10-19T12:24:31;100240.00;;;19.64;44.50
54592;BME280;40488;48.558;18.150;2022-10-19T12:27:01;100245.25;;;19.61;44.85
54592;BME280;40488;48.558;18.150;2022-10-19T12:29:33;100235.09;;;19.55;44.85
54592;BME280;40488;48.558;18.150;2022-10-19T12:32:04;100240.59;;;19.43;45.13
54592;BME280;40488;48.558;18.150;2022-10-19T12:34:40;100247.31;;;19.50;45.42
54592;BME280;40488;48.558;18.150;2022-10-19T12:37:17;100245.44;;;19.55;45.93
54592;BME280;40488;48.558;18.150;2022-10-19T12:39:55;100247.19;;;19.53;46.60
54592;BME280;40488;48.558;18.150;2022-10-19T12:42:29;100251.59;;;19.19;47.07
54592;BME280;40488;48.558;18.150;2022-10-19T12:45:19;100250.28;;;19.03;47.58
54592;BME280;40488;48.558;18.150;2022-10-19T12:53:36;100237.09;;;19.44;47.51
54592;BME280;40488;48.558;18.150;2022-10-19T12:56:07;100228.34;;;19.50;46.57
54592;BME280;40488;48.558;18.150;2022-10-19T12:58:43;100228.13;;;19.57;45.76
54592;BME280;40488;48.558;18.150;2022-10-19T13:01:19;100223.75;;;19.59;46.01
54592;BME280;40488;48.558;18.150;2022-10-19T13:03:52;100222.94;;;19.57;45.36
54592;BME280;40488;48.558;18.150;2022-10-19T13:06:31;100215.97;;;19.59;44.92
54592;BME280;40488;48.558;18.150;2022-10-19T13:09:04;100230.38;;;19.68;44.55
54592;BME280;40488;48.558;18.150;2022-10-19T13:11:35;100227.25;;;19.57;44.30
54592;BME280;40488;48.558;18.150;2022-10-19T13:14:06;100229.00;;;19.56;44.75
54592;BME280;40488;48.558;18.150;2022-10-19T13:16:57;100228.53;;;19.42;44.23
54592;BME280;40488;48.558;18.150;2022-10-19T13:19:26;100223.44;;;19.39;44.84